KBTP/BTP METAR and TAF weather

Enter ICAO airport designator
Station Type Date Time Source
KBTP METAR 2020/05/30 05:13 UTC NOAA

KBTP 300513Z AUTO 27003KT 10SM SCT009 13/13 A3003 RMK AO2


Station Type Date Time Source
KBTP Decoded METAR 2020/05/30 05:13 UTC NOAA

Butler, Butler County Airport/K W Scholter Field, PA, United States (KBTP) 40-47N 079-57W
May 30, 2020 - 01:13 AM EDT / 2020.05.30 0513 UTC
Wind: from the W (270 degrees) at 3 MPH (3 KT):0
Visibility: 10 mile(s):0
Sky conditions: partly cloudy
Temperature: 55 F (13 C)
Dew Point: 55 F (13 C)
Relative Humidity: 100%
Pressure (altimeter): 30.03 in. Hg (1016 hPa)
ob: KBTP 300513Z AUTO 27003KT 10SM SCT009 13/13 A3003 RMK AO2
cycle: 5

Station Type Date Time Source
KBTP TAF UTC NOAA

Error!

Example: see airport list